KRDG

Reading Regional / Carl A Spaatz Field Airport

Reading, Pennsylvania, USA
KRDG 151120Z 1512/1612 25004KT P6SM SCT100 FM151400 28008G16KT P6SM SCT050 FM152300 25004KT P6SM SCT250 FM160200 VRB03KT P6SM SCT250 TEMPO 1608/1612 4SM BR
Issued Valid From Valid To
Aug-15 @ 11:20 UTC
(an hour ago)
Aug-15 @ 12:00 UTC
(40 minutes ago)
Aug-16 @ 12:00 UTC
(in 23 hours)
Aug-15 @ 12:00 to Aug-15 @ 14:00
KRDG 151120Z 1512/1612 25004KT P6SM SCT100
Wind Visibility Clouds
250° at 4 knots Greater than 6 miles
  • Scattered at 10,000' AGL
From Aug-15 @ 14:00 to Aug-15 @ 23:00
FM151400 28008G16KT P6SM SCT050
Wind Visibility Clouds
280° at 8 knots
 Gusting to 16 knots
Greater than 6 miles
  • Scattered at 5,000' AGL
From Aug-15 @ 23:00 to Aug-16 @ 02:00
FM152300 25004KT P6SM SCT250
Wind Visibility Clouds
250° at 4 knots Greater than 6 miles
  • Scattered at 25,000' AGL
From Aug-16 @ 02:00 to Aug-16 @ 12:00
FM160200 VRB03KT P6SM SCT250
Wind Visibility Clouds
Variable at 3 knots Greater than 6 miles
  • Scattered at 25,000' AGL
Temporary Aug-16 @ 08:00 to Aug-16 @ 12:00
TEMPO 1608/1612 4SM BR
Visibility Conditions
4 miles
  • Mist
KRDG 151120Z 1512/1612 25004KT P6SM SCT100 FM151400 28008G16KT P6SM SCT050 FM152300 25004KT P6SM SCT250 FM160200 VRB03KT P6SM SCT250 TEMPO 1608/1612 4SM BR
Issued Aug-15 @ 11:20 UTC
(an hour ago)
Valid From Aug-15 @ 12:00 UTC
(40 minutes ago)
Valid To Aug-16 @ 12:00 UTC
(in 23 hours)
Aug-15 @ 12:00 - Aug-15 @ 14:00
Wind Visibility
250° at 4 knots Greater than 6 miles
Clouds
  • Scattered at 10,000' AGL
From Aug-15 @ 14:00 - Aug-15 @ 23:00
Wind Visibility
280° at 8 knots
 Gusting to 16 knots
Greater than 6 miles
Clouds
  • Scattered at 5,000' AGL
From Aug-15 @ 23:00 - Aug-16 @ 02:00
Wind Visibility
250° at 4 knots Greater than 6 miles
Clouds
  • Scattered at 25,000' AGL
From Aug-16 @ 02:00 - Aug-16 @ 12:00
Wind Visibility
Variable at 3 knots Greater than 6 miles
Clouds
  • Scattered at 25,000' AGL
Temporary Aug-16 @ 08:00 - Aug-16 @ 12:00
Conditions
  • Mist